TVF35DL LKPR-LFPO
Flight info
| Callsign | TVF35DL |
|---|---|
| Flight time | 1h 25m |
| Altitude | 36000 |
| Route | BALTU DCT DONAD DCT RAPET Z93 KODUK DCT MARZA DCT LOHRE DCT BOMBI DCT BETEX DCT IDOSA DCT TOLVU/N0443F350 DCT RAPOR DCT RENSA |
| Aircraft | B738/M-SDE2E3FGHIRWXY/LB1 |
Departure
| Time | 2026-05-07 15:04 |
|---|---|
| Airport | Václav Havel Airport Prague (LKPR) |
Arrival
| Time | 2026-05-07 16:29 |
|---|---|
| Airport | Paris-Orly Airport (LFPO) |
| Time | Latitude | Longitude | Altitude | Speed | Heading |
|---|---|---|---|---|---|
| 2026-05-07 14:32 | 50.10391 | 14.26692 | 1170 ft | 0 kts | 34° |
| 2026-05-07 14:50 | 50.10384 | 14.26684 | 1169 ft | 2 kts | 34° |
| 2026-05-07 14:50 | 50.10372 | 14.26672 | 1169 ft | 2 kts | 34° |
| 2026-05-07 14:50 | 50.10359 | 14.26661 | 1172 ft | 2 kts | 351° |
| 2026-05-07 14:51 | 50.10349 | 14.26671 | 1169 ft | 0 kts | 299° |
| 2026-05-07 14:55 | 50.10353 | 14.26648 | 1171 ft | 5 kts | 278° |
| 2026-05-07 14:55 | 50.10333 | 14.26606 | 1172 ft | 5 kts | 217° |
| 2026-05-07 14:56 | 50.10301 | 14.26571 | 1170 ft | 6 kts | 215° |
| 2026-05-07 14:56 | 50.10268 | 14.26536 | 1173 ft | 6 kts | 212° |
| 2026-05-07 14:56 | 50.10220 | 14.26554 | 1176 ft | 10 kts | 130° |
| 2026-05-07 14:56 | 50.10160 | 14.26677 | 1177 ft | 18 kts | 128° |
| 2026-05-07 14:57 | 50.10081 | 14.26842 | 1186 ft | 19 kts | 127° |
| 2026-05-07 14:57 | 50.10001 | 14.27006 | 1195 ft | 19 kts | 127° |
| 2026-05-07 14:57 | 50.09924 | 14.27165 | 1200 ft | 18 kts | 126° |
| 2026-05-07 14:57 | 50.09849 | 14.27317 | 1202 ft | 17 kts | 133° |
| 2026-05-07 14:58 | 50.09764 | 14.27447 | 1204 ft | 17 kts | 135° |
| 2026-05-07 14:58 | 50.09683 | 14.27574 | 1206 ft | 16 kts | 135° |
| 2026-05-07 14:58 | 50.09605 | 14.27695 | 1210 ft | 16 kts | 136° |
| 2026-05-07 14:58 | 50.09528 | 14.27808 | 1212 ft | 15 kts | 137° |
| 2026-05-07 14:59 | 50.09458 | 14.27920 | 1214 ft | 14 kts | 133° |
| 2026-05-07 14:59 | 50.09389 | 14.28026 | 1214 ft | 14 kts | 136° |
| 2026-05-07 14:59 | 50.09325 | 14.28123 | 1214 ft | 12 kts | 135° |
| 2026-05-07 14:59 | 50.09267 | 14.28211 | 1213 ft | 10 kts | 135° |
| 2026-05-07 15:00 | 50.09211 | 14.28278 | 1211 ft | 10 kts | 161° |
| 2026-05-07 15:00 | 50.09153 | 14.28272 | 1210 ft | 5 kts | 212° |
| 2026-05-07 15:00 | 50.09150 | 14.28268 | 1210 ft | 0 kts | 217° |
| 2026-05-07 15:01 | 50.09149 | 14.28268 | 1210 ft | 0 kts | 217° |
| 2026-05-07 15:01 | 50.09132 | 14.28248 | 1210 ft | 7 kts | 217° |
| 2026-05-07 15:01 | 50.09084 | 14.28189 | 1209 ft | 10 kts | 217° |
| 2026-05-07 15:02 | 50.09060 | 14.28135 | 1207 ft | 2 kts | 284° |
| 2026-05-07 15:02 | 50.09063 | 14.28130 | 1207 ft | 0 kts | 307° |
| 2026-05-07 15:03 | 50.09088 | 14.28079 | 1207 ft | 22 kts | 306° |
| 2026-05-07 15:03 | 50.09323 | 14.27591 | 1211 ft | 91 kts | 307° |
| 2026-05-07 15:03 | 50.09830 | 14.26542 | 1206 ft | 149 kts | 307° |
| 2026-05-07 15:03 | 50.10530 | 14.25093 | 1490 ft | 175 kts | 303° |
| 2026-05-07 15:04 | 50.11247 | 14.23517 | 2308 ft | 179 kts | 301° |
| 2026-05-07 15:04 | 50.11986 | 14.21948 | 3129 ft | 182 kts | 303° |
| 2026-05-07 15:04 | 50.12745 | 14.20382 | 3998 ft | 181 kts | 303° |
| 2026-05-07 15:04 | 50.13534 | 14.18750 | 4548 ft | 192 kts | 303° |
| 2026-05-07 15:05 | 50.14389 | 14.16989 | 4808 ft | 217 kts | 304° |
| 2026-05-07 15:05 | 50.15342 | 14.15032 | 5142 ft | 236 kts | 304° |
| 2026-05-07 15:05 | 50.16385 | 14.12883 | 5527 ft | 257 kts | 304° |
| 2026-05-07 15:05 | 50.17455 | 14.10608 | 6346 ft | 260 kts | 297° |
| 2026-05-07 15:06 | 50.17873 | 14.07956 | 7160 ft | 258 kts | 265° |
| 2026-05-07 15:06 | 50.17613 | 14.05183 | 7958 ft | 261 kts | 258° |
| 2026-05-07 15:06 | 50.17275 | 14.02351 | 8733 ft | 266 kts | 258° |
| 2026-05-07 15:06 | 50.16927 | 13.99494 | 9581 ft | 270 kts | 258° |
| 2026-05-07 15:07 | 50.16575 | 13.96598 | 10309 ft | 276 kts | 257° |
| 2026-05-07 15:07 | 50.16206 | 13.93543 | 10593 ft | 298 kts | 257° |
| 2026-05-07 15:07 | 50.15817 | 13.90291 | 11034 ft | 312 kts | 257° |
| 2026-05-07 15:07 | 50.15413 | 13.86884 | 11453 ft | 327 kts | 257° |
| 2026-05-07 15:08 | 50.14992 | 13.83323 | 11924 ft | 339 kts | 257° |
| 2026-05-07 15:08 | 50.14562 | 13.79665 | 12583 ft | 347 kts | 257° |
| 2026-05-07 15:08 | 50.14125 | 13.75951 | 13411 ft | 349 kts | 257° |
| 2026-05-07 15:08 | 50.13683 | 13.72197 | 14130 ft | 355 kts | 257° |
| 2026-05-07 15:09 | 50.13233 | 13.68385 | 14838 ft | 359 kts | 257° |
| 2026-05-07 15:09 | 50.12778 | 13.64546 | 15613 ft | 362 kts | 257° |
| 2026-05-07 15:09 | 50.12339 | 13.60858 | 16323 ft | 366 kts | 257° |
| 2026-05-07 15:09 | 50.11870 | 13.56926 | 17009 ft | 372 kts | 257° |
| 2026-05-07 15:10 | 50.11394 | 13.52949 | 17805 ft | 375 kts | 258° |
| 2026-05-07 15:10 | 50.10918 | 13.48977 | 18475 ft | 380 kts | 258° |
| 2026-05-07 15:10 | 50.10430 | 13.44916 | 19147 ft | 382 kts | 258° |
| 2026-05-07 15:10 | 50.09938 | 13.40829 | 19749 ft | 386 kts | 258° |
| 2026-05-07 15:11 | 50.09436 | 13.36695 | 20360 ft | 390 kts | 258° |
| 2026-05-07 15:11 | 50.08956 | 13.32526 | 21005 ft | 393 kts | 261° |
| 2026-05-07 15:11 | 50.08761 | 13.28237 | 21517 ft | 400 kts | 266° |
| 2026-05-07 15:11 | 50.08670 | 13.23915 | 22203 ft | 401 kts | 267° |
| 2026-05-07 15:12 | 50.08584 | 13.19535 | 22667 ft | 407 kts | 267° |
| 2026-05-07 15:12 | 50.08487 | 13.15117 | 23237 ft | 410 kts | 267° |
| 2026-05-07 15:12 | 50.08376 | 13.10652 | 23720 ft | 414 kts | 267° |
| 2026-05-07 15:12 | 50.08254 | 13.06142 | 24145 ft | 418 kts | 267° |
| 2026-05-07 15:13 | 50.08178 | 13.01604 | 24588 ft | 422 kts | 271° |
| 2026-05-07 15:13 | 50.08487 | 12.97107 | 25015 ft | 425 kts | 282° |
| 2026-05-07 15:13 | 50.09205 | 12.92619 | 25459 ft | 428 kts | 285° |
| 2026-05-07 15:13 | 50.09989 | 12.88132 | 25881 ft | 431 kts | 285° |
| 2026-05-07 15:14 | 50.10787 | 12.83607 | 26311 ft | 434 kts | 285° |
| 2026-05-07 15:14 | 50.11577 | 12.79054 | 26725 ft | 437 kts | 285° |
| 2026-05-07 15:14 | 50.12358 | 12.74476 | 27142 ft | 439 kts | 285° |
| 2026-05-07 15:14 | 50.13134 | 12.69857 | 27557 ft | 441 kts | 285° |
| 2026-05-07 15:15 | 50.13905 | 12.65219 | 28008 ft | 444 kts | 285° |
| 2026-05-07 15:15 | 50.14678 | 12.60544 | 28499 ft | 446 kts | 285° |
| 2026-05-07 15:15 | 50.15453 | 12.55840 | 29036 ft | 446 kts | 285° |
| 2026-05-07 15:15 | 50.16213 | 12.51211 | 29968 ft | 438 kts | 285° |
| 2026-05-07 15:16 | 50.16970 | 12.46601 | 30380 ft | 440 kts | 285° |
| 2026-05-07 15:16 | 50.17732 | 12.41948 | 30644 ft | 444 kts | 285° |
| 2026-05-07 15:16 | 50.18496 | 12.37269 | 31011 ft | 445 kts | 284° |
| 2026-05-07 15:16 | 50.19060 | 12.32506 | 31329 ft | 448 kts | 276° |
| 2026-05-07 15:17 | 50.19157 | 12.27690 | 31619 ft | 450 kts | 270° |
| 2026-05-07 15:17 | 50.19113 | 12.22729 | 31944 ft | 451 kts | 269° |
| 2026-05-07 15:17 | 50.19050 | 12.17833 | 32263 ft | 452 kts | 269° |
| 2026-05-07 15:17 | 50.18996 | 12.12999 | 32626 ft | 452 kts | 269° |
| 2026-05-07 15:18 | 50.18956 | 12.08108 | 33068 ft | 450 kts | 269° |
| 2026-05-07 15:18 | 50.18926 | 12.03238 | 33478 ft | 448 kts | 269° |
| 2026-05-07 15:18 | 50.18900 | 11.98383 | 33831 ft | 448 kts | 269° |
| 2026-05-07 15:18 | 50.18875 | 11.93497 | 34146 ft | 448 kts | 269° |
| 2026-05-07 15:19 | 50.18848 | 11.88641 | 34430 ft | 448 kts | 269° |
| 2026-05-07 15:19 | 50.18817 | 11.83798 | 34822 ft | 444 kts | 269° |
| 2026-05-07 15:19 | 50.18805 | 11.78998 | 35305 ft | 439 kts | 270° |
| 2026-05-07 15:19 | 50.18855 | 11.74266 | 35724 ft | 435 kts | 270° |
| 2026-05-07 15:20 | 50.18934 | 11.69552 | 36077 ft | 434 kts | 271° |
| 2026-05-07 15:20 | 50.19017 | 11.64854 | 36325 ft | 434 kts | 271° |
| 2026-05-07 15:20 | 50.19095 | 11.60145 | 36664 ft | 432 kts | 270° |
| 2026-05-07 15:20 | 50.19164 | 11.55475 | 37048 ft | 429 kts | 270° |
| 2026-05-07 15:21 | 50.19227 | 11.50834 | 37408 ft | 427 kts | 270° |
| 2026-05-07 15:21 | 50.19284 | 11.46207 | 37677 ft | 426 kts | 270° |
| 2026-05-07 15:21 | 50.19336 | 11.41638 | 37884 ft | 427 kts | 270° |
| 2026-05-07 15:21 | 50.19388 | 11.36988 | 38035 ft | 429 kts | 270° |
| 2026-05-07 15:22 | 50.19485 | 11.27573 | 38040 ft | 438 kts | 270° |
| 2026-05-07 15:22 | 50.19579 | 11.17989 | 38033 ft | 446 kts | 270° |
| 2026-05-07 15:23 | 50.19666 | 11.08273 | 38035 ft | 449 kts | 270° |
| 2026-05-07 15:23 | 50.19746 | 10.98505 | 38031 ft | 451 kts | 270° |
| 2026-05-07 15:24 | 50.19413 | 10.88732 | 38050 ft | 450 kts | 262° |
| 2026-05-07 15:24 | 50.18554 | 10.79063 | 38038 ft | 450 kts | 261° |
| 2026-05-07 15:25 | 50.17696 | 10.69480 | 38032 ft | 448 kts | 262° |
| 2026-05-07 15:25 | 50.16876 | 10.60027 | 38028 ft | 433 kts | 262° |
| 2026-05-07 15:26 | 50.16075 | 10.50765 | 38035 ft | 429 kts | 262° |
| 2026-05-07 15:26 | 50.15270 | 10.41544 | 38035 ft | 427 kts | 262° |
| 2026-05-07 15:27 | 50.14463 | 10.32378 | 38048 ft | 426 kts | 262° |
| 2026-05-07 15:27 | 50.13659 | 10.23361 | 38038 ft | 426 kts | 261° |
| 2026-05-07 15:28 | 50.12838 | 10.14288 | 38046 ft | 426 kts | 261° |
| 2026-05-07 15:28 | 50.12008 | 10.05192 | 38044 ft | 427 kts | 261° |
| 2026-05-07 15:29 | 50.11172 | 9.96101 | 38046 ft | 428 kts | 261° |
| 2026-05-07 15:29 | 50.10318 | 9.86884 | 38043 ft | 430 kts | 261° |
| 2026-05-07 15:30 | 50.09454 | 9.77644 | 38046 ft | 431 kts | 261° |
| 2026-05-07 15:30 | 50.08588 | 9.68456 | 38042 ft | 433 kts | 261° |
| 2026-05-07 15:31 | 50.07705 | 9.59168 | 38045 ft | 434 kts | 261° |
| 2026-05-07 15:31 | 50.06815 | 9.49872 | 38049 ft | 434 kts | 262° |
| 2026-05-07 15:32 | 50.06535 | 9.42090 | 38058 ft | 434 kts | 268° |
| 2026-05-07 15:32 | 50.06454 | 9.32670 | 38044 ft | 435 kts | 269° |
| 2026-05-07 15:33 | 50.06355 | 9.23241 | 38045 ft | 434 kts | 268° |
| 2026-05-07 15:33 | 50.06224 | 9.13861 | 38047 ft | 433 kts | 268° |
| 2026-05-07 15:34 | 50.06084 | 9.04820 | 38053 ft | 432 kts | 268° |
| 2026-05-07 15:34 | 50.05932 | 8.95463 | 38045 ft | 431 kts | 268° |
| 2026-05-07 15:35 | 50.05776 | 8.86206 | 38050 ft | 430 kts | 268° |
| 2026-05-07 15:35 | 50.05481 | 8.76922 | 38047 ft | 429 kts | 263° |
| 2026-05-07 15:36 | 50.04651 | 8.67737 | 38054 ft | 428 kts | 261° |
| 2026-05-07 15:36 | 50.03738 | 8.58575 | 38046 ft | 428 kts | 261° |
| 2026-05-07 15:37 | 50.02850 | 8.49415 | 38056 ft | 428 kts | 261° |
| 2026-05-07 15:37 | 50.01983 | 8.40282 | 38041 ft | 429 kts | 261° |
| 2026-05-07 15:38 | 50.01115 | 8.31108 | 38045 ft | 429 kts | 261° |
| 2026-05-07 15:38 | 50.00243 | 8.21971 | 38046 ft | 429 kts | 261° |
| 2026-05-07 15:39 | 49.99359 | 8.12789 | 38050 ft | 429 kts | 261° |
| 2026-05-07 15:39 | 49.98468 | 8.03612 | 38048 ft | 429 kts | 261° |
| 2026-05-07 15:40 | 49.97568 | 7.94425 | 38044 ft | 429 kts | 261° |
| 2026-05-07 15:40 | 49.96663 | 7.85263 | 38042 ft | 429 kts | 261° |
| 2026-05-07 15:41 | 49.95754 | 7.76142 | 38041 ft | 430 kts | 261° |
| 2026-05-07 15:41 | 49.94832 | 7.66962 | 38040 ft | 430 kts | 261° |
| 2026-05-07 15:42 | 49.93905 | 7.57816 | 38041 ft | 430 kts | 261° |
| 2026-05-07 15:42 | 49.92970 | 7.48654 | 38044 ft | 430 kts | 261° |
| 2026-05-07 15:43 | 49.92032 | 7.39547 | 38047 ft | 430 kts | 260° |
| 2026-05-07 15:43 | 49.91082 | 7.30385 | 38045 ft | 430 kts | 260° |
| 2026-05-07 15:44 | 49.90125 | 7.21231 | 38047 ft | 429 kts | 260° |
| 2026-05-07 15:44 | 49.89164 | 7.12122 | 38051 ft | 429 kts | 260° |
| 2026-05-07 15:45 | 49.88194 | 7.02990 | 38041 ft | 429 kts | 260° |
| 2026-05-07 15:45 | 49.87705 | 6.98408 | 37816 ft | 433 kts | 260° |
| 2026-05-07 15:45 | 49.87210 | 6.93793 | 37445 ft | 433 kts | 260° |
| 2026-05-07 15:46 | 49.86231 | 6.84720 | 36767 ft | 425 kts | 260° |
| 2026-05-07 15:46 | 49.85741 | 6.80204 | 36431 ft | 424 kts | 261° |
| 2026-05-07 15:46 | 49.85250 | 6.75697 | 36108 ft | 424 kts | 261° |
| 2026-05-07 15:47 | 49.84757 | 6.71191 | 35791 ft | 423 kts | 261° |
| 2026-05-07 15:47 | 49.84265 | 6.66703 | 35471 ft | 422 kts | 261° |
| 2026-05-07 15:47 | 49.83772 | 6.62226 | 35165 ft | 421 kts | 261° |
| 2026-05-07 15:47 | 49.83279 | 6.57760 | 34850 ft | 421 kts | 261° |
| 2026-05-07 15:48 | 49.82784 | 6.53297 | 34576 ft | 420 kts | 261° |
| 2026-05-07 15:48 | 49.82295 | 6.48898 | 34362 ft | 417 kts | 261° |
| 2026-05-07 15:48 | 49.81801 | 6.44477 | 34165 ft | 418 kts | 261° |
| 2026-05-07 15:49 | 49.80712 | 6.35558 | 34052 ft | 426 kts | 259° |
| 2026-05-07 15:49 | 49.79502 | 6.26598 | 34031 ft | 423 kts | 259° |
| 2026-05-07 15:50 | 49.78305 | 6.17715 | 34045 ft | 421 kts | 259° |
| 2026-05-07 15:50 | 49.77118 | 6.08849 | 34046 ft | 420 kts | 259° |
| 2026-05-07 15:51 | 49.75938 | 6.00058 | 34049 ft | 419 kts | 259° |
| 2026-05-07 15:51 | 49.74624 | 5.91269 | 34046 ft | 419 kts | 255° |
| 2026-05-07 15:52 | 49.72973 | 5.82607 | 34049 ft | 419 kts | 253° |
| 2026-05-07 15:52 | 49.71285 | 5.73967 | 34043 ft | 420 kts | 254° |
| 2026-05-07 15:53 | 49.69625 | 5.65322 | 34040 ft | 420 kts | 254° |
| 2026-05-07 15:53 | 49.67978 | 5.56664 | 34041 ft | 420 kts | 254° |
| 2026-05-07 15:54 | 49.66339 | 5.48059 | 34042 ft | 420 kts | 254° |
| 2026-05-07 15:54 | 49.64685 | 5.39409 | 34046 ft | 420 kts | 254° |
| 2026-05-07 15:55 | 49.63026 | 5.30777 | 34043 ft | 420 kts | 254° |
| 2026-05-07 15:55 | 49.61360 | 5.22144 | 34043 ft | 420 kts | 254° |
| 2026-05-07 15:56 | 49.59693 | 5.13552 | 33635 ft | 425 kts | 254° |
| 2026-05-07 15:56 | 49.58841 | 5.09173 | 32963 ft | 426 kts | 254° |
| 2026-05-07 15:56 | 49.57989 | 5.04800 | 32199 ft | 426 kts | 253° |
| 2026-05-07 15:56 | 49.57133 | 5.00425 | 31477 ft | 425 kts | 253° |
| 2026-05-07 15:57 | 49.56280 | 4.96071 | 30778 ft | 425 kts | 253° |
| 2026-05-07 15:57 | 49.55423 | 4.91707 | 30082 ft | 425 kts | 253° |
| 2026-05-07 15:57 | 49.54562 | 4.87335 | 29292 ft | 429 kts | 253° |
| 2026-05-07 15:57 | 49.53689 | 4.82909 | 28429 ft | 435 kts | 253° |
| 2026-05-07 15:58 | 49.52802 | 4.78422 | 27565 ft | 439 kts | 253° |
| 2026-05-07 15:58 | 49.51909 | 4.73914 | 26721 ft | 439 kts | 253° |
| 2026-05-07 15:58 | 49.51016 | 4.69419 | 25905 ft | 439 kts | 253° |
| 2026-05-07 15:58 | 49.50133 | 4.64986 | 25123 ft | 439 kts | 253° |
| 2026-05-07 15:59 | 49.49237 | 4.60496 | 24351 ft | 438 kts | 253° |
| 2026-05-07 15:59 | 49.48345 | 4.56040 | 23788 ft | 431 kts | 253° |
| 2026-05-07 15:59 | 49.47470 | 4.51676 | 23267 ft | 424 kts | 253° |
| 2026-05-07 15:59 | 49.46513 | 4.47383 | 22714 ft | 423 kts | 247° |
| 2026-05-07 16:00 | 49.45118 | 4.43456 | 22173 ft | 415 kts | 238° |
| 2026-05-07 16:00 | 49.43584 | 4.39739 | 21645 ft | 407 kts | 238° |
| 2026-05-07 16:00 | 49.42088 | 4.36088 | 21118 ft | 400 kts | 238° |
| 2026-05-07 16:00 | 49.40623 | 4.32489 | 20604 ft | 394 kts | 239° |
| 2026-05-07 16:01 | 49.39204 | 4.28987 | 20095 ft | 388 kts | 239° |
| 2026-05-07 16:01 | 49.37790 | 4.25487 | 19612 ft | 383 kts | 239° |
| 2026-05-07 16:01 | 49.36392 | 4.22023 | 19119 ft | 378 kts | 239° |
| 2026-05-07 16:01 | 49.35016 | 4.18613 | 18647 ft | 374 kts | 239° |
| 2026-05-07 16:02 | 49.33651 | 4.15235 | 18149 ft | 370 kts | 239° |
| 2026-05-07 16:02 | 49.32306 | 4.11907 | 17602 ft | 366 kts | 239° |
| 2026-05-07 16:02 | 49.30966 | 4.08596 | 17079 ft | 363 kts | 239° |
| 2026-05-07 16:02 | 49.29640 | 4.05322 | 16558 ft | 360 kts | 239° |
| 2026-05-07 16:03 | 49.28328 | 4.02089 | 16158 ft | 355 kts | 238° |
| 2026-05-07 16:03 | 49.27034 | 3.98906 | 15825 ft | 350 kts | 238° |
| 2026-05-07 16:03 | 49.25754 | 3.95758 | 15500 ft | 347 kts | 238° |
| 2026-05-07 16:03 | 49.24475 | 3.92619 | 15169 ft | 345 kts | 238° |
| 2026-05-07 16:04 | 49.23227 | 3.89556 | 14856 ft | 343 kts | 238° |
| 2026-05-07 16:04 | 49.21960 | 3.86453 | 14539 ft | 342 kts | 238° |
| 2026-05-07 16:04 | 49.20706 | 3.83384 | 14223 ft | 339 kts | 238° |
| 2026-05-07 16:04 | 49.19453 | 3.80322 | 14088 ft | 340 kts | 238° |
| 2026-05-07 16:05 | 49.18188 | 3.77233 | 14055 ft | 345 kts | 238° |
| 2026-05-07 16:05 | 49.16908 | 3.74112 | 14041 ft | 347 kts | 238° |
| 2026-05-07 16:05 | 49.15626 | 3.70993 | 14034 ft | 346 kts | 238° |
| 2026-05-07 16:05 | 49.14362 | 3.67916 | 13975 ft | 347 kts | 238° |
| 2026-05-07 16:06 | 49.13072 | 3.64783 | 13671 ft | 347 kts | 238° |
| 2026-05-07 16:06 | 49.11793 | 3.61678 | 13368 ft | 343 kts | 238° |
| 2026-05-07 16:06 | 49.10524 | 3.58602 | 13081 ft | 340 kts | 238° |
| 2026-05-07 16:06 | 49.09264 | 3.55554 | 12744 ft | 339 kts | 238° |
| 2026-05-07 16:07 | 49.08013 | 3.52526 | 12339 ft | 336 kts | 238° |
| 2026-05-07 16:07 | 49.06770 | 3.49524 | 12110 ft | 337 kts | 238° |
| 2026-05-07 16:07 | 49.05501 | 3.46462 | 11884 ft | 344 kts | 238° |
| 2026-05-07 16:07 | 49.04215 | 3.43363 | 11643 ft | 347 kts | 238° |
| 2026-05-07 16:08 | 49.02940 | 3.40292 | 11407 ft | 346 kts | 238° |
| 2026-05-07 16:08 | 49.01654 | 3.37200 | 11164 ft | 345 kts | 238° |
| 2026-05-07 16:08 | 49.00369 | 3.34113 | 10929 ft | 344 kts | 238° |
| 2026-05-07 16:08 | 48.99084 | 3.31031 | 10701 ft | 343 kts | 237° |
| 2026-05-07 16:09 | 48.97812 | 3.27982 | 10620 ft | 339 kts | 237° |
| 2026-05-07 16:09 | 48.96550 | 3.24964 | 10552 ft | 339 kts | 237° |
| 2026-05-07 16:09 | 48.95289 | 3.21948 | 10503 ft | 343 kts | 237° |
| 2026-05-07 16:09 | 48.94008 | 3.18888 | 10446 ft | 343 kts | 237° |
| 2026-05-07 16:10 | 48.92728 | 3.15835 | 10381 ft | 342 kts | 237° |
| 2026-05-07 16:10 | 48.91448 | 3.12785 | 10329 ft | 342 kts | 237° |
| 2026-05-07 16:10 | 48.90167 | 3.09737 | 10269 ft | 342 kts | 237° |
| 2026-05-07 16:10 | 48.88884 | 3.06687 | 10188 ft | 343 kts | 237° |
| 2026-05-07 16:11 | 48.87416 | 3.03849 | 10074 ft | 336 kts | 227° |
| 2026-05-07 16:11 | 48.85833 | 3.01350 | 10033 ft | 320 kts | 225° |
| 2026-05-07 16:11 | 48.84300 | 2.99010 | 10024 ft | 304 kts | 225° |
| 2026-05-07 16:11 | 48.83329 | 2.97535 | 10022 ft | 294 kts | 225° |
| 2026-05-07 16:12 | 48.81920 | 2.95406 | 10020 ft | 285 kts | 225° |
| 2026-05-07 16:12 | 48.80517 | 2.93292 | 9966 ft | 285 kts | 225° |
| 2026-05-07 16:12 | 48.79108 | 2.91173 | 9874 ft | 285 kts | 225° |
| 2026-05-07 16:12 | 48.77705 | 2.89066 | 9766 ft | 284 kts | 225° |
| 2026-05-07 16:13 | 48.76303 | 2.86962 | 9616 ft | 284 kts | 225° |
| 2026-05-07 16:13 | 48.74899 | 2.84854 | 9436 ft | 285 kts | 225° |
| 2026-05-07 16:13 | 48.73490 | 2.82738 | 9259 ft | 285 kts | 225° |
| 2026-05-07 16:13 | 48.72075 | 2.80615 | 9064 ft | 286 kts | 225° |
| 2026-05-07 16:14 | 48.70679 | 2.78520 | 8891 ft | 286 kts | 225° |
| 2026-05-07 16:14 | 48.69275 | 2.76413 | 8707 ft | 283 kts | 225° |
| 2026-05-07 16:14 | 48.67884 | 2.74330 | 8518 ft | 280 kts | 225° |
| 2026-05-07 16:14 | 48.66599 | 2.72408 | 8352 ft | 276 kts | 225° |
| 2026-05-07 16:15 | 48.65413 | 2.70436 | 8175 ft | 275 kts | 235° |
| 2026-05-07 16:15 | 48.64367 | 2.67996 | 8102 ft | 278 kts | 238° |
| 2026-05-07 16:15 | 48.63331 | 2.65524 | 8055 ft | 278 kts | 238° |
| 2026-05-07 16:15 | 48.62303 | 2.63063 | 8043 ft | 275 kts | 238° |
| 2026-05-07 16:16 | 48.61281 | 2.60621 | 8045 ft | 275 kts | 238° |
| 2026-05-07 16:16 | 48.60253 | 2.58166 | 8052 ft | 277 kts | 238° |
| 2026-05-07 16:16 | 48.59233 | 2.55735 | 8048 ft | 278 kts | 238° |
| 2026-05-07 16:16 | 48.58200 | 2.53266 | 8047 ft | 278 kts | 240° |
| 2026-05-07 16:17 | 48.57371 | 2.50627 | 8058 ft | 278 kts | 249° |
| 2026-05-07 16:17 | 48.56694 | 2.47889 | 8050 ft | 278 kts | 250° |
| 2026-05-07 16:17 | 48.56046 | 2.45129 | 8041 ft | 278 kts | 251° |
| 2026-05-07 16:17 | 48.55395 | 2.42374 | 8043 ft | 278 kts | 251° |
| 2026-05-07 16:18 | 48.54740 | 2.39635 | 8047 ft | 278 kts | 250° |
| 2026-05-07 16:18 | 48.54075 | 2.36893 | 8039 ft | 277 kts | 250° |
| 2026-05-07 16:18 | 48.53408 | 2.34171 | 8030 ft | 276 kts | 250° |
| 2026-05-07 16:18 | 48.52738 | 2.31458 | 8016 ft | 277 kts | 250° |
| 2026-05-07 16:19 | 48.52057 | 2.28710 | 7753 ft | 281 kts | 250° |
| 2026-05-07 16:19 | 48.51374 | 2.25968 | 7517 ft | 282 kts | 250° |
| 2026-05-07 16:19 | 48.50687 | 2.23217 | 7258 ft | 279 kts | 250° |
| 2026-05-07 16:19 | 48.50004 | 2.20488 | 7001 ft | 276 kts | 250° |
| 2026-05-07 16:20 | 48.49330 | 2.17798 | 6740 ft | 272 kts | 250° |
| 2026-05-07 16:20 | 48.48663 | 2.15144 | 6495 ft | 270 kts | 250° |
| 2026-05-07 16:20 | 48.47994 | 2.12483 | 6232 ft | 270 kts | 250° |
| 2026-05-07 16:20 | 48.47426 | 2.09795 | 5956 ft | 269 kts | 266° |
| 2026-05-07 16:21 | 48.47766 | 2.07125 | 5726 ft | 264 kts | 300° |
| 2026-05-07 16:21 | 48.48886 | 2.04958 | 5528 ft | 261 kts | 314° |
| 2026-05-07 16:21 | 48.50157 | 2.03002 | 5299 ft | 261 kts | 316° |
| 2026-05-07 16:21 | 48.51438 | 2.01050 | 5064 ft | 261 kts | 315° |
| 2026-05-07 16:22 | 48.52697 | 1.99104 | 4883 ft | 256 kts | 315° |
| 2026-05-07 16:22 | 48.53917 | 1.97197 | 4733 ft | 249 kts | 315° |
| 2026-05-07 16:22 | 48.55184 | 1.95500 | 4623 ft | 239 kts | 332° |
| 2026-05-07 16:22 | 48.56743 | 1.94889 | 4551 ft | 229 kts | 1° |
| 2026-05-07 16:23 | 48.58257 | 1.95434 | 4454 ft | 222 kts | 26° |
| 2026-05-07 16:23 | 48.59461 | 1.96794 | 4364 ft | 219 kts | 47° |
| 2026-05-07 16:23 | 48.60301 | 1.98699 | 4304 ft | 217 kts | 59° |
| 2026-05-07 16:23 | 48.61023 | 2.00711 | 4230 ft | 219 kts | 60° |
| 2026-05-07 16:24 | 48.61732 | 2.02754 | 4158 ft | 220 kts | 60° |
| 2026-05-07 16:24 | 48.62218 | 2.04139 | 4086 ft | 221 kts | 60° |
| 2026-05-07 16:24 | 48.62934 | 2.06164 | 3992 ft | 219 kts | 59° |
| 2026-05-07 16:24 | 48.63689 | 2.08129 | 3885 ft | 212 kts | 58° |
| 2026-05-07 16:25 | 48.64404 | 2.10054 | 3611 ft | 209 kts | 59° |
| 2026-05-07 16:25 | 48.65083 | 2.11968 | 3348 ft | 204 kts | 60° |
| 2026-05-07 16:25 | 48.65739 | 2.13844 | 3075 ft | 200 kts | 60° |
| 2026-05-07 16:25 | 48.66367 | 2.15641 | 2800 ft | 186 kts | 60° |
| 2026-05-07 16:26 | 48.66948 | 2.17298 | 2565 ft | 172 kts | 59° |
| 2026-05-07 16:26 | 48.67476 | 2.18809 | 2308 ft | 158 kts | 59° |
| 2026-05-07 16:26 | 48.67966 | 2.20269 | 2053 ft | 154 kts | 60° |
| 2026-05-07 16:26 | 48.68430 | 2.21689 | 1830 ft | 146 kts | 59° |
| 2026-05-07 16:27 | 48.68908 | 2.23002 | 1587 ft | 143 kts | 58° |
| 2026-05-07 16:27 | 48.69393 | 2.24309 | 1348 ft | 142 kts | 57° |
| 2026-05-07 16:27 | 48.69553 | 2.24753 | 1319 ft | 141 kts | 59° |
| 2026-05-07 16:27 | 48.69748 | 2.25301 | 1273 ft | 142 kts | 58° |
| 2026-05-07 16:28 | 48.70192 | 2.26605 | 1045 ft | 143 kts | 61° |
| 2026-05-07 16:28 | 48.70611 | 2.27819 | 934 ft | 139 kts | 59° |
| 2026-05-07 16:28 | 48.71100 | 2.29146 | 763 ft | 141 kts | 62° |
| 2026-05-07 16:28 | 48.71561 | 2.30452 | 595 ft | 141 kts | 62° |
| 2026-05-07 16:29 | 48.72022 | 2.31755 | 380 ft | 139 kts | 62° |
| 2026-05-07 16:29 | 48.72459 | 2.32992 | 304 ft | 123 kts | 63° |
| 2026-05-07 16:29 | 48.72795 | 2.33944 | 303 ft | 75 kts | 62° |
| 2026-05-07 16:29 | 48.72949 | 2.34383 | 299 ft | 36 kts | 63° |
| 2026-05-07 16:30 | 48.73008 | 2.34724 | 300 ft | 31 kts | 82° |
| 2026-05-07 16:30 | 48.73036 | 2.35026 | 299 ft | 23 kts | 81° |
| 2026-05-07 16:30 | 48.73009 | 2.35237 | 298 ft | 21 kts | 129° |
| 2026-05-07 16:30 | 48.72899 | 2.35368 | 298 ft | 20 kts | 123° |
| 2026-05-07 16:31 | 48.72787 | 2.35461 | 299 ft | 19 kts | 165° |
| 2026-05-07 16:31 | 48.72663 | 2.35512 | 302 ft | 17 kts | 164° |
| 2026-05-07 16:31 | 48.72553 | 2.35560 | 300 ft | 15 kts | 164° |
| 2026-05-07 16:31 | 48.72469 | 2.35595 | 299 ft | 11 kts | 165° |
| 2026-05-07 16:32 | 48.72397 | 2.35624 | 299 ft | 11 kts | 165° |
| 2026-05-07 16:32 | 48.72335 | 2.35669 | 297 ft | 10 kts | 128° |
| 2026-05-07 16:32 | 48.72339 | 2.35776 | 297 ft | 11 kts | 75° |
| 2026-05-07 16:32 | 48.72360 | 2.35894 | 302 ft | 12 kts | 74° |
| 2026-05-07 16:33 | 48.72381 | 2.36009 | 299 ft | 9 kts | 74° |
| 2026-05-07 16:33 | 48.72397 | 2.36092 | 298 ft | 8 kts | 74° |
| 2026-05-07 16:33 | 48.72409 | 2.36157 | 299 ft | 1 kts | 74° |
| 2026-05-07 16:33 | 48.72409 | 2.36158 | 299 ft | 0 kts | 74° |
| 2026-05-07 16:34 | 48.72410 | 2.36163 | 298 ft | 2 kts | 74° |
| 2026-05-07 16:34 | 48.72420 | 2.36208 | 302 ft | 5 kts | 61° |
| 2026-05-07 16:35 | 48.72453 | 2.36233 | 299 ft | 6 kts | 2° |
| 2026-05-07 16:35 | 48.72503 | 2.36244 | 302 ft | 9 kts | 37° |
| 2026-05-07 16:35 | 48.72527 | 2.36345 | 299 ft | 11 kts | 75° |
| 2026-05-07 16:35 | 48.72548 | 2.36457 | 302 ft | 11 kts | 75° |
| 2026-05-07 16:36 | 48.72558 | 2.36566 | 298 ft | 10 kts | 105° |
| 2026-05-07 16:36 | 48.72504 | 2.36602 | 298 ft | 10 kts | 214° |
| 2026-05-07 16:36 | 48.72455 | 2.36602 | 301 ft | 7 kts | 144° |
| 2026-05-07 16:36 | 48.72428 | 2.36631 | 299 ft | 0 kts | 143° |
| 2026-05-07 16:37 | 48.72426 | 2.36634 | 299 ft | 0 kts | 143° |